Time;durP1;ratioP1;P1;durP2;ratioP2;P2;SDS_P1;SDS_P2;PMS_P1;PMS_P2;Temp;Humidity;BMP_temperature;BMP_pressure;BME280_temperature;BME280_humidity;BME280_pressure;Samples;Min_cycle;Max_cycle;Signal;HPM_P1;HPM_P2
2021/01/13 00:02:24;;;;;;;305.92;147.68;;;0.00;97.90;;;;;;5097762;28;20020;-71
2021/01/13 00:04:50;;;;;;;334.20;169.40;;;0.00;98.30;;;;;;5096287;28;20021;-73
2021/01/13 00:07:15;;;;;;;366.25;185.57;;;0.00;98.00;;;;;;5097148;28;20028;-73
2021/01/13 00:09:41;;;;;;;340.10;171.48;;;0.00;98.30;;;;;;5096332;28;20026;-69
2021/01/13 00:12:08;;;;;;;332.23;165.07;;;0.00;98.30;;;;;;5096323;28;20035;-71
2021/01/13 00:14:34;;;;;;;343.50;164.68;;;0.00;98.20;;;;;;5097172;28;20178;-71
2021/01/13 00:17:00;;;;;;;340.65;170.35;;;0.00;98.10;;;;;;5097392;28;20414;-71
2021/01/13 00:19:26;;;;;;;378.25;191.82;;;0.00;97.70;;;;;;5095733;28;20024;-72
2021/01/13 00:21:53;;;;;;;434.30;224.77;;;0.00;98.10;;;;;;5096045;28;20020;-71
2021/01/13 00:24:20;;;;;;;469.92;241.80;;;-0.10;98.30;;;;;;5097323;28;20020;-71
2021/01/13 00:26:46;;;;;;;440.25;229.55;;;-0.10;97.80;;;;;;5096791;28;20069;-71
2021/01/13 00:29:12;;;;;;;363.80;180.52;;;0.00;98.40;;;;;;5096220;28;20039;-70
2021/01/13 00:31:38;;;;;;;343.35;171.23;;;0.00;97.90;;;;;;5096035;28;20078;-70
2021/01/13 00:34:08;;;;;;;304.95;152.73;;;0.00;97.80;;;;;;5095558;28;20408;-70
2021/01/13 00:36:34;;;;;;;383.70;182.10;;;0.00;97.60;;;;;;5097024;28;20367;-70
2021/01/13 00:39:00;;;;;;;262.95;128.65;;;-0.20;98.00;;;;;;5096314;28;20031;-71
2021/01/13 00:41:26;;;;;;;533.60;147.73;;;-0.30;98.20;;;;;;5096393;28;20024;-72
2021/01/13 00:43:53;;;;;;;634.92;145.57;;;-0.30;98.30;;;;;;5096684;28;20107;-70
2021/01/13 00:46:22;;;;;;;700.78;155.50;;;-0.50;98.50;;;;;;5096629;28;20032;-72
2021/01/13 00:48:48;;;;;;;430.85;130.40;;;-0.60;98.80;;;;;;5094938;28;20032;-70
2021/01/13 00:51:14;;;;;;;591.97;155.35;;;-0.60;99.30;;;;;;5095543;28;20065;-70
2021/01/13 00:53:40;;;;;;;576.72;191.23;;;-0.70;99.40;;;;;;5095409;28;20436;-72
2021/01/13 00:56:06;;;;;;;557.17;192.77;;;-0.70;99.30;;;;;;5095175;28;20028;-71
2021/01/13 00:58:32;;;;;;;383.08;147.55;;;-0.70;99.40;;;;;;5095659;28;20035;-71
2021/01/13 01:00:58;;;;;;;831.78;223.57;;;-0.70;99.70;;;;;;5094914;28;20062;-71
2021/01/13 01:03:24;;;;;;;547.45;196.52;;;-0.60;99.60;;;;;;5094989;28;20506;-72
2021/01/13 01:05:50;;;;;;;592.95;215.45;;;-0.70;99.90;;;;;;5095205;28;20115;-72
2021/01/13 01:08:17;;;;;;;540.17;223.43;;;-0.60;99.60;;;;;;5095449;28;20032;-72
2021/01/13 01:10:46;;;;;;;453.95;197.90;;;-0.70;99.70;;;;;;5094892;28;20024;-71
2021/01/13 01:13:11;;;;;;;429.80;179.80;;;-0.80;99.70;;;;;;5094849;28;20024;-72
2021/01/13 01:15:37;;;;;;;387.98;169.55;;;-0.90;99.30;;;;;;5094721;28;20028;-71
2021/01/13 01:18:03;;;;;;;334.73;150.43;;;-1.00;99.10;;;;;;5096226;28;20119;-70
2021/01/13 01:20:29;;;;;;;329.52;151.77;;;-1.00;99.50;;;;;;5095757;28;20465;-71
2021/01/13 01:22:57;;;;;;;342.30;149.95;;;-1.00;99.30;;;;;;5094734;28;20024;-72
2021/01/13 01:25:24;;;;;;;370.45;155.18;;;-1.10;99.50;;;;;;5096189;28;20103;-70
2021/01/13 01:27:51;;;;;;;382.02;155.32;;;-1.20;99.40;;;;;;5095858;28;20035;-71
2021/01/13 01:30:17;;;;;;;370.08;149.43;;;-1.30;99.80;;;;;;5096051;28;20107;-73
2021/01/13 01:32:44;;;;;;;315.27;139.23;;;-1.40;99.90;;;;;;5094816;28;20052;-72
2021/01/13 01:35:11;;;;;;;294.60;129.70;;;-1.40;99.80;;;;;;5094662;28;20020;-72
2021/01/13 01:37:39;;;;;;;253.50;119.47;;;-1.40;99.60;;;;;;5094033;28;20070;-71
2021/01/13 01:40:07;;;;;;;263.67;122.55;;;-1.30;99.60;;;;;;5095350;28;20028;-73
2021/01/13 01:42:33;;;;;;;257.77;122.15;;;-1.30;99.30;;;;;;5094548;28;20032;-71
2021/01/13 01:44:59;;;;;;;230.15;110.07;;;-1.30;99.40;;;;;;5094223;28;20034;-72
2021/01/13 01:48:01;;;;;;;227.15;106.72;;;-1.20;99.70;;;;;;5094302;28;20032;-72
2021/01/13 01:50:38;;;;;;;217.48;104.80;;;-1.30;99.30;;;;;;5094246;28;20024;-72
2021/01/13 01:53:18;;;;;;;202.07;99.28;;;-1.20;99.30;;;;;;5094069;28;20036;-73
2021/01/13 01:56:24;;;;;;;193.77;94.03;;;-1.20;99.30;;;;;;5094232;28;20499;-70
2021/01/13 01:58:59;;;;;;;186.98;94.70;;;-1.20;99.50;;;;;;5095276;28;20103;-73
2021/01/13 02:01:33;;;;;;;180.18;88.43;;;-1.20;99.30;;;;;;5095451;28;20035;-72
2021/01/13 02:04:28;;;;;;;190.63;92.65;;;-1.20;99.80;;;;;;5094100;28;20062;-71
2021/01/13 02:07:08;;;;;;;;;;;-1.00;99.70;;;;;;5068087;28;20118;-71
2021/01/13 02:09:34;;;;;;;169.20;83.35;;;-0.90;99.20;;;;;;5095062;28;20093;-71
2021/01/13 02:12:09;;;;;;;175.85;83.30;;;-0.80;99.00;;;;;;5093139;28;20047;-72
2021/01/13 02:14:36;;;;;;;160.02;71.85;;;-0.70;99.00;;;;;;5093684;28;20048;-73
2021/01/13 02:17:06;;;;;;;163.23;77.15;;;-0.70;99.00;;;;;;5095368;28;20168;-73
2021/01/13 02:19:47;;;;;;;128.55;57.95;;;-0.70;98.80;;;;;;5093819;28;20385;-71
2021/01/13 02:22:18;;;;;;;150.80;67.80;;;-0.60;98.80;;;;;;5093711;28;20031;-72
2021/01/13 02:25:12;;;;;;;137.23;64.57;;;-0.60;98.70;;;;;;5094298;28;20442;-73
2021/01/13 02:27:59;;;;;;;141.43;68.57;;;-0.50;98.60;;;;;;5093384;28;20070;-72
2021/01/13 02:30:40;;;;;;;139.88;69.28;;;-0.50;98.70;;;;;;5093628;28;20039;-71
2021/01/13 02:33:29;;;;;;;125.43;58.80;;;-0.50;98.60;;;;;;5093663;28;20385;-72
2021/01/13 02:36:06;;;;;;;135.70;61.65;;;-0.40;98.50;;;;;;5093561;28;20103;-74
2021/01/13 02:38:34;;;;;;;147.23;66.45;;;-0.40;98.40;;;;;;5094090;28;20481;-72
2021/01/13 02:40:59;;;;;;;155.68;71.80;;;-0.30;98.40;;;;;;5094660;28;20055;-73
2021/01/13 02:43:29;;;;;;;149.27;65.20;;;-0.30;98.50;;;;;;5094334;28;20049;-71
2021/01/13 02:45:59;;;;;;;145.82;70.25;;;-0.30;98.40;;;;;;5094918;28;20474;-71
2021/01/13 02:48:27;;;;;;;141.95;65.32;;;-0.20;98.40;;;;;;5093129;28;20097;-72
2021/01/13 02:50:57;;;;;;;140.13;64.78;;;-0.20;98.40;;;;;;5093755;28;20028;-72
2021/01/13 02:53:29;;;;;;;119.82;54.83;;;-0.20;98.30;;;;;;5092934;28;20393;-72
2021/01/13 02:56:23;;;;;;;130.05;57.88;;;-0.30;98.60;;;;;;5093190;28;20457;-71
2021/01/13 02:58:59;;;;;;;120.53;52.30;;;-0.30;98.80;;;;;;5093752;28;20055;-72
2021/01/13 03:01:29;;;;;;;129.10;56.05;;;-0.40;98.70;;;;;;5094083;28;20029;-71
2021/01/13 03:03:56;;;;;;;128.93;54.58;;;-0.40;99.00;;;;;;5093592;28;20028;-71
2021/01/13 03:06:26;;;;;;;126.32;55.97;;;-0.40;99.00;;;;;;5093925;28;20028;-71
2021/01/13 03:09:00;;;;;;;113.53;53.40;;;-0.40;99.00;;;;;;5093077;28;20351;-73
2021/01/13 03:11:26;;;;;;;123.25;57.90;;;-0.30;98.90;;;;;;5093937;28;20051;-71
2021/01/13 03:14:07;;;;;;;113.32;51.30;;;-0.30;98.70;;;;;;5092756;28;20073;-74
2021/01/13 03:16:39;;;;;;;121.72;57.38;;;-0.30;98.70;;;;;;5092546;28;20071;-71
2021/01/13 03:19:15;;;;;;;125.28;55.88;;;-0.30;98.70;;;;;;5094131;28;20024;-71
2021/01/13 03:21:50;;;;;;;116.47;53.28;;;-0.20;98.60;;;;;;5092587;28;20028;-71
2021/01/13 03:24:21;;;;;;;124.32;57.10;;;-0.10;98.30;;;;;;5092082;28;20016;-72
2021/01/13 03:26:49;;;;;;;129.65;58.60;;;-0.10;98.50;;;;;;5093373;28;20556;-72
2021/01/13 03:29:20;;;;;;;124.53;54.70;;;0.00;98.40;;;;;;5092359;28;20504;-71
2021/01/13 03:31:51;;;;;;;126.85;59.35;;;0.00;98.50;;;;;;5093905;28;20024;-72
2021/01/13 03:34:28;;;;;;;128.98;55.50;;;0.00;98.50;;;;;;5092735;28;20382;-72
2021/01/13 03:36:58;;;;;;;126.07;54.92;;;0.00;98.30;;;;;;5092450;28;20036;-72
2021/01/13 03:39:27;;;;;;;123.00;55.03;;;0.10;98.50;;;;;;5093571;28;20037;-74
2021/01/13 03:41:53;;;;;;;123.97;54.25;;;0.10;98.50;;;;;;5092544;28;20024;-73
2021/01/13 03:44:33;;;;;;;116.93;53.00;;;0.10;98.40;;;;;;5093199;28;20080;-71
2021/01/13 03:47:40;;;;;;;122.53;56.05;;;0.00;98.50;;;;;;5092483;28;20024;-72
2021/01/13 03:50:23;;;;;;;159.65;78.15;;;0.00;98.50;;;;;;5069480;28;20056;-71
2021/01/13 03:53:05;;;;;;;165.32;75.47;;;0.00;98.40;;;;;;5093740;28;20046;-71
2021/01/13 03:55:33;;;;;;;129.73;59.05;;;0.00;98.80;;;;;;5094042;28;20032;-71
2021/01/13 03:58:08;;;;;;;123.50;56.47;;;0.00;98.20;;;;;;5091912;28;20032;-71
2021/01/13 04:00:52;;;;;;;;;;;0.00;98.20;;;;;;5092883;28;20023;-72
2021/01/13 04:03:26;;;;;;;130.50;56.88;;;0.00;98.40;;;;;;5093697;28;19911;-73
2021/01/13 04:06:06;;;;;;;128.95;53.85;;;0.00;98.30;;;;;;5092392;28;20466;-71
2021/01/13 04:08:43;;;;;;;125.95;55.40;;;0.00;98.00;;;;;;5094161;28;20056;-72
2021/01/13 04:11:11;;;;;;;135.23;57.42;;;-0.10;98.30;;;;;;5093315;28;20456;-70
2021/01/13 04:13:39;;;;;;;145.02;60.83;;;-0.20;98.70;;;;;;5093314;28;20079;-72
2021/01/13 04:16:06;;;;;;;123.28;53.33;;;-0.20;98.60;;;;;;5093415;28;20047;-72
2021/01/13 04:18:32;;;;;;;135.77;58.30;;;-0.20;98.70;;;;;;5091915;28;20114;-72
2021/01/13 04:20:58;;;;;;;190.43;91.18;;;-0.40;98.80;;;;;;5092205;28;20397;-71
2021/01/13 04:23:24;;;;;;;159.73;72.03;;;-0.50;99.40;;;;;;5092161;28;20089;-72
2021/01/13 04:25:50;;;;;;;162.18;71.22;;;-0.60;99.70;;;;;;5091775;28;20028;-72
2021/01/13 04:28:16;;;;;;;157.70;69.32;;;-0.60;99.90;;;;;;5092024;28;20028;-72
2021/01/13 04:30:43;;;;;;;149.07;65.38;;;-0.50;99.90;;;;;;5091998;28;20031;-70
2021/01/13 04:33:09;;;;;;;157.85;70.78;;;-0.60;99.90;;;;;;5091715;28;20165;-71
2021/01/13 04:35:35;;;;;;;149.05;65.63;;;-0.60;99.80;;;;;;5095728;28;20062;-72
2021/01/13 04:38:03;;;;;;;138.63;59.55;;;-0.50;99.70;;;;;;5095681;28;20028;-74
2021/01/13 04:40:29;;;;;;;127.72;55.25;;;-0.60;99.50;;;;;;5096481;28;20051;-71
2021/01/13 04:43:05;;;;;;;123.22;53.47;;;-0.60;99.60;;;;;;5095949;28;20444;-71
2021/01/13 04:45:40;;;;;;;139.77;61.03;;;-0.50;99.70;;;;;;5095055;28;20119;-73
2021/01/13 04:48:07;;;;;;;;;;;-0.40;99.30;;;;;;5096086;28;20024;-71
2021/01/13 04:50:35;;;;;;;121.13;50.28;;;-0.30;99.10;;;;;;5095594;28;19904;-73
2021/01/13 04:53:10;;;;;;;109.68;47.55;;;-0.30;98.90;;;;;;5096526;28;20020;-71
2021/01/13 04:55:49;;;;;;;127.97;55.95;;;-0.20;98.70;;;;;;5096685;28;20020;-71
2021/01/13 04:58:21;;;;;;;121.82;52.65;;;-0.20;98.70;;;;;;5095321;28;20036;-72
2021/01/13 05:00:59;;;;;;;121.93;53.88;;;-0.10;99.10;;;;;;5096302;28;20032;-73
2021/01/13 05:03:37;;;;;;;126.57;57.00;;;-0.20;98.50;;;;;;5096613;28;20386;-72
2021/01/13 05:06:28;;;;;;;141.80;63.35;;;-0.10;98.70;;;;;;5096633;28;20485;-72
2021/01/13 05:09:06;;;;;;;123.05;55.47;;;-0.10;98.70;;;;;;5095582;28;20428;-72
2021/01/13 05:11:38;;;;;;;137.80;60.35;;;0.00;98.80;;;;;;5095150;28;20359;-70
2021/01/13 05:14:05;;;;;;;136.27;63.30;;;0.00;98.40;;;;;;5095250;28;20056;-72
2021/01/13 05:16:50;;;;;;;140.13;63.10;;;0.00;98.60;;;;;;5096017;28;20039;-71
2021/01/13 05:19:24;;;;;;;149.57;68.43;;;0.00;98.50;;;;;;5095415;28;20076;-72
2021/01/13 05:21:55;;;;;;;136.45;61.85;;;0.10;98.90;;;;;;5094859;28;20072;-72
2021/01/13 05:24:21;;;;;;;148.23;67.18;;;0.10;98.50;;;;;;5095545;28;20415;-71
2021/01/13 05:27:00;;;;;;;181.10;85.35;;;0.00;98.60;;;;;;5094926;28;20035;-73
2021/01/13 05:29:32;;;;;;;172.80;85.38;;;0.00;98.70;;;;;;5094650;28;20378;-73
2021/01/13 05:32:03;;;;;;;142.57;62.42;;;0.00;98.60;;;;;;5094477;28;20076;-71
2021/01/13 05:34:31;;;;;;;131.05;59.20;;;0.00;98.60;;;;;;5094460;28;20021;-72
2021/01/13 05:37:18;;;;;;;135.57;62.03;;;0.00;98.50;;;;;;5094666;28;20096;-70
2021/01/13 05:39:49;;;;;;;132.45;60.92;;;0.00;98.40;;;;;;5095562;28;20146;-73
2021/01/13 05:42:17;;;;;;;131.25;58.47;;;0.00;98.90;;;;;;5094731;28;20027;-70
2021/01/13 05:44:43;;;;;;;143.93;62.35;;;0.00;98.50;;;;;;5094505;28;20024;-71
2021/01/13 05:47:46;;;;;;;137.68;60.95;;;0.00;98.40;;;;;;5094032;28;20039;-71
2021/01/13 05:50:16;;;;;;;152.15;63.75;;;0.10;98.80;;;;;;5094219;28;20531;-72
2021/01/13 05:52:44;;;;;;;132.07;60.13;;;0.10;98.50;;;;;;5095622;28;20020;-71
2021/01/13 05:55:10;;;;;;;127.78;58.90;;;0.10;98.70;;;;;;5094622;28;20145;-70
2021/01/13 05:57:37;;;;;;;149.95;66.85;;;0.10;98.60;;;;;;5095275;28;20383;-70
2021/01/13 06:00:05;;;;;;;158.50;74.03;;;0.10;98.80;;;;;;5094006;28;20108;-71
2021/01/13 06:02:40;;;;;;;194.18;97.57;;;0.10;98.60;;;;;;5093808;28;20055;-73
2021/01/13 06:05:08;;;;;;;178.68;90.68;;;0.10;98.60;;;;;;5094784;28;20366;-71
2021/01/13 06:07:34;;;;;;;162.75;81.22;;;0.10;98.60;;;;;;5094014;28;20032;-70
2021/01/13 06:10:01;;;;;;;143.85;66.95;;;0.10;98.70;;;;;;5094805;28;20097;-73
2021/01/13 06:12:30;;;;;;;144.85;68.10;;;0.10;98.60;;;;;;5094013;28;20378;-71
2021/01/13 06:14:56;;;;;;;154.02;69.45;;;0.10;98.60;;;;;;5093969;28;20044;-72
2021/01/13 06:17:29;;;;;;;150.65;68.60;;;0.10;98.80;;;;;;5094851;28;20036;-71
2021/01/13 06:19:56;;;;;;;152.75;67.88;;;0.20;99.00;;;;;;5094102;28;20382;-71
2021/01/13 06:22:30;;;;;;;154.73;66.90;;;0.20;98.60;;;;;;5093763;28;20050;-71
2021/01/13 06:25:01;;;;;;;171.77;73.82;;;0.20;98.40;;;;;;5093476;28;20052;-72
2021/01/13 06:27:47;;;;;;;188.38;84.47;;;0.10;98.40;;;;;;5093857;28;20125;-71
2021/01/13 06:30:43;;;;;;;171.77;80.47;;;0.20;98.60;;;;;;5052979;28;20420;-70
2021/01/13 06:33:21;;;;;;;201.63;88.55;;;0.30;98.50;;;;;;5092961;28;20036;-71
2021/01/13 06:36:17;;;;;;;165.23;72.20;;;0.20;98.30;;;;;;5094144;28;20028;-72
2021/01/13 06:39:04;;;;;;;225.75;90.53;;;0.00;98.60;;;;;;5094275;28;20438;-72
2021/01/13 06:41:49;;;;;;;227.82;95.35;;;0.00;98.90;;;;;;5093475;28;20460;-73
2021/01/13 06:44:16;;;;;;;332.10;132.77;;;0.00;99.20;;;;;;5093422;28;20078;-70
2021/01/13 06:46:42;;;;;;;257.70;119.35;;;-0.10;99.10;;;;;;5093031;28;20081;-72
2021/01/13 06:49:13;;;;;;;216.20;98.53;;;-0.10;99.40;;;;;;5094621;28;20020;-71
2021/01/13 06:51:43;;;;;;;284.65;123.22;;;-0.10;99.60;;;;;;5092948;28;20028;-71
2021/01/13 06:54:12;;;;;;;209.10;97.75;;;0.00;99.50;;;;;;5093214;28;20531;-72
2021/01/13 06:56:47;;;;;;;216.63;97.60;;;0.10;99.20;;;;;;5093097;28;20028;-72
2021/01/13 06:59:14;;;;;;;215.93;98.15;;;-0.10;99.10;;;;;;5093979;28;20103;-70
2021/01/13 07:01:59;;;;;;;169.90;76.38;;;-0.10;99.20;;;;;;5093112;28;20028;-70
2021/01/13 07:04:26;;;;;;;158.48;72.47;;;0.00;99.30;;;;;;5094385;28;20493;-71
2021/01/13 07:07:06;;;;;;;166.18;75.18;;;-0.20;99.10;;;;;;5094138;28;20028;-69
2021/01/13 07:09:32;;;;;;;154.85;67.72;;;-0.20;99.30;;;;;;5093607;28;20028;-71
2021/01/13 07:12:06;;;;;;;143.38;69.30;;;-0.20;99.40;;;;;;5092941;28;20119;-72
2021/01/13 07:14:36;;;;;;;181.30;81.28;;;-0.10;99.50;;;;;;5092541;28;20051;-73
2021/01/13 07:17:05;;;;;;;250.60;99.38;;;-0.10;99.30;;;;;;5094085;28;20047;-70
2021/01/13 07:19:33;;;;;;;211.48;94.90;;;0.10;99.80;;;;;;5092455;28;20028;-70
2021/01/13 07:21:59;;;;;;;232.63;106.30;;;0.20;99.30;;;;;;5092708;28;20031;-71
2021/01/13 07:24:27;;;;;;;158.73;76.20;;;0.30;99.00;;;;;;5093991;28;20110;-72
2021/01/13 07:26:55;;;;;;;203.43;89.90;;;0.20;98.70;;;;;;5092321;28;20039;-71
2021/01/13 07:29:20;;;;;;;195.35;87.82;;;0.20;98.80;;;;;;5093232;28;20377;-70
2021/01/13 07:31:47;;;;;;;178.65;80.18;;;0.20;98.60;;;;;;5092618;28;20020;-72
2021/01/13 07:34:32;;;;;;;247.70;101.30;;;0.20;98.70;;;;;;5092805;28;20024;-70
2021/01/13 07:37:00;;;;;;;355.85;145.75;;;0.20;98.70;;;;;;5092580;28;20039;-72
2021/01/13 07:39:59;;;;;;;266.65;118.60;;;0.10;98.70;;;;;;5092508;28;20024;-70
2021/01/13 07:42:36;;;;;;;274.60;125.82;;;0.20;99.10;;;;;;5093824;28;20059;-70
2021/01/13 07:45:10;;;;;;;247.07;109.38;;;0.20;98.80;;;;;;5092393;28;20032;-70
2021/01/13 07:48:10;;;;;;;233.98;110.03;;;0.30;99.00;;;;;;5092169;28;20535;-70
2021/01/13 07:50:44;;;;;;;173.63;84.50;;;0.20;99.00;;;;;;5092431;28;20062;-72
2021/01/13 07:53:22;;;;;;;166.15;79.78;;;0.20;98.90;;;;;;5093737;28;20027;-70
2021/01/13 07:55:59;;;;;;;172.00;82.50;;;0.30;98.80;;;;;;5092500;28;20036;-70
2021/01/13 07:58:30;;;;;;;158.27;73.65;;;0.30;99.00;;;;;;5093570;28;20085;-69
2021/01/13 08:01:38;;;;;;;154.40;72.15;;;0.30;98.80;;;;;;5092219;28;20032;-69
2021/01/13 08:04:41;;;;;;;165.30;78.47;;;0.30;98.80;;;;;;5092049;28;20036;-69
2021/01/13 08:07:16;;;;;;;177.70;80.30;;;0.40;98.90;;;;;;5092231;28;20032;-69
2021/01/13 08:09:50;;;;;;;179.50;89.93;;;0.50;98.50;;;;;;5092809;28;20020;-70
2021/01/13 08:12:42;;;;;;;154.32;76.38;;;0.60;98.50;;;;;;5095987;28;20039;-70
2021/01/13 08:15:43;;;;;;;181.45;83.75;;;0.60;98.30;;;;;;5096514;28;20052;-70
2021/01/13 08:18:27;;;;;;;218.80;103.28;;;0.80;98.20;;;;;;5024500;28;20041;-69
2021/01/13 08:21:34;;;;;;;187.02;89.45;;;1.10;97.70;;;;;;5096152;28;20035;-69
2021/01/13 08:26:46;;;;;;;181.02;92.85;;;1.30;97.40;;;;;;5034834;28;20053;-70
2021/01/13 08:29:21;;;;;;;180.55;90.18;;;1.10;97.00;;;;;;5034713;28;20029;-70
2021/01/13 08:32:03;;;;;;;164.88;84.28;;;1.10;97.10;;;;;;5058271;28;20047;-70
2021/01/13 08:34:39;;;;;;;151.60;67.93;;;1.10;97.30;;;;;;5095574;28;20024;-73
2021/01/13 08:37:07;;;;;;;179.00;85.72;;;1.00;97.20;;;;;;5095775;28;20028;-72
2021/01/13 08:39:33;;;;;;;160.20;75.72;;;1.10;97.40;;;;;;5095749;28;20020;-71
2021/01/13 08:42:33;;;;;;;159.18;81.30;;;1.10;97.60;;;;;;5095510;28;20028;-75
2021/01/13 08:44:59;;;;;;;142.20;73.43;;;1.00;97.30;;;;;;5052243;28;20482;-71
2021/01/13 08:47:26;;;;;;;149.98;71.60;;;1.00;97.30;;;;;;5096641;28;20032;-72
2021/01/13 08:49:52;;;;;;;142.93;67.90;;;1.20;97.40;;;;;;5096524;28;20020;-74
2021/01/13 08:52:22;;;;;;;162.02;73.80;;;1.20;97.30;;;;;;5095572;28;20020;-71
2021/01/13 08:54:48;;;;;;;134.52;65.93;;;1.10;97.40;;;;;;5095285;28;20031;-71
2021/01/13 08:57:15;;;;;;;172.45;89.13;;;1.00;97.30;;;;;;5095547;28;20036;-71
2021/01/13 08:59:45;;;;;;;148.07;74.57;;;1.30;97.80;;;;;;5095395;28;20028;-70
2021/01/13 09:02:45;;;;;;;148.75;71.88;;;1.30;97.10;;;;;;5095376;28;20031;-72
2021/01/13 09:05:28;;;;;;;148.30;75.57;;;1.30;97.30;;;;;;5096508;28;20020;-72
2021/01/13 09:07:54;;;;;;;232.60;111.78;;;1.40;97.00;;;;;;5095653;28;20382;-76
2021/01/13 09:10:21;;;;;;;166.57;82.38;;;1.30;97.10;;;;;;5096407;28;20032;-73
2021/01/13 09:12:47;;;;;;;200.35;101.50;;;1.40;97.10;;;;;;5096636;28;20032;-71
2021/01/13 09:15:14;;;;;;;145.05;72.15;;;1.40;97.20;;;;;;5095050;28;20217;-77
2021/01/13 09:17:43;;;;;;;234.90;107.75;;;1.30;97.10;;;;;;5095085;28;20039;-76
2021/01/13 09:20:12;;;;;;;234.70;109.65;;;1.60;97.30;;;;;;5095090;28;20039;-78
2021/01/13 09:22:47;;;;;;;165.52;78.85;;;1.60;96.70;;;;;;5093559;28;20054;-76
2021/01/13 09:25:22;;;;;;;224.05;104.07;;;1.50;96.90;;;;;;5094948;28;20059;-76
2021/01/13 09:27:50;;;;;;;168.68;84.13;;;1.50;96.70;;;;;;5095474;28;20028;-76
2021/01/13 09:30:36;;;;;;;161.10;81.18;;;1.60;96.80;;;;;;5094620;28;20059;-76
2021/01/13 09:33:07;;;;;;;171.65;88.30;;;1.70;96.80;;;;;;5095155;28;20024;-76
2021/01/13 09:35:42;;;;;;;232.05;111.07;;;1.70;96.60;;;;;;5094521;28;20056;-75
2021/01/13 09:38:10;;;;;;;209.45;101.07;;;1.90;96.90;;;;;;5094385;28;20032;-76
2021/01/13 09:41:02;;;;;;;265.70;114.30;;;1.80;96.60;;;;;;5094391;28;20059;-76
2021/01/13 09:43:44;;;;;;;199.93;96.88;;;1.90;96.50;;;;;;5095075;28;20035;-76
2021/01/13 09:46:22;;;;;;;197.18;97.30;;;1.90;96.70;;;;;;5095935;28;20024;-77
2021/01/13 09:49:11;;;;;;;209.52;97.57;;;1.90;96.50;;;;;;5095825;28;20031;-77
2021/01/13 09:51:40;;;;;;;151.93;74.13;;;2.00;96.70;;;;;;5094593;28;20031;-75
2021/01/13 09:54:08;;;;;;;207.43;95.53;;;1.90;96.70;;;;;;5094073;28;20168;-77
2021/01/13 09:56:35;;;;;;;397.20;174.45;;;2.00;96.60;;;;;;5094176;28;20509;-77
2021/01/13 09:59:06;;;;;;;228.05;101.25;;;2.00;96.40;;;;;;5095330;28;20031;-75
2021/01/13 10:01:36;;;;;;;236.85;107.55;;;1.80;96.50;;;;;;5094309;28;20161;-74
2021/01/13 10:04:10;;;;;;;201.07;92.45;;;1.80;96.70;;;;;;5095779;28;20026;-77
2021/01/13 10:06:39;;;;;;;289.52;123.38;;;1.80;96.90;;;;;;5094210;28;20111;-74
2021/01/13 10:09:13;;;;;;;327.80;148.80;;;1.80;97.10;;;;;;5095401;28;20028;-76
2021/01/13 10:11:40;;;;;;;243.77;111.13;;;1.80;96.80;;;;;;5095639;28;20481;-74
2021/01/13 10:14:08;;;;;;;198.88;99.72;;;1.90;97.10;;;;;;5095245;28;20052;-75
2021/01/13 10:16:41;;;;;;;157.50;78.60;;;2.00;96.60;;;;;;5094189;28;20363;-75
2021/01/13 10:19:07;;;;;;;140.38;67.47;;;2.10;96.70;;;;;;5094925;28;20035;-73
2021/01/13 10:21:35;;;;;;;149.23;69.95;;;2.10;96.40;;;;;;5093798;28;20028;-75
2021/01/13 10:24:29;;;;;;;181.52;89.72;;;2.10;96.80;;;;;;5093814;28;20034;-75
2021/01/13 10:27:00;;;;;;;141.00;69.50;;;2.10;96.70;;;;;;5092325;28;20036;-75
2021/01/13 10:29:26;;;;;;;144.60;69.13;;;2.10;96.80;;;;;;5095028;28;20020;-75
2021/01/13 10:31:52;;;;;;;183.55;93.63;;;2.10;96.60;;;;;;5093552;28;20090;-75
2021/01/13 10:34:19;;;;;;;170.73;84.68;;;2.10;96.60;;;;;;5093055;28;20024;-75
2021/01/13 10:36:45;;;;;;;136.90;69.97;;;2.10;96.70;;;;;;5093502;28;20042;-75
2021/01/13 10:39:17;;;;;;;140.60;71.50;;;2.10;96.70;;;;;;5093275;28;20024;-75
2021/01/13 10:41:42;;;;;;;134.35;68.18;;;2.00;96.50;;;;;;5094850;28;20028;-74
2021/01/13 10:44:15;;;;;;;114.60;62.03;;;2.10;96.70;;;;;;5094737;28;20377;-75
2021/01/13 10:46:44;;;;;;;175.05;78.20;;;1.90;96.90;;;;;;5093257;28;20399;-75
2021/01/13 10:49:18;;;;;;;141.65;70.85;;;1.80;97.10;;;;;;5093902;28;20027;-75
2021/01/13 10:51:50;;;;;;;158.60;74.85;;;1.90;97.10;;;;;;5094721;28;20036;-76
2021/01/13 10:54:25;;;;;;;138.40;65.20;;;1.90;96.90;;;;;;5093036;28;20028;-76
2021/01/13 10:56:56;;;;;;;123.72;62.30;;;1.90;97.10;;;;;;5093324;28;20071;-75
2021/01/13 10:59:22;;;;;;;145.57;68.60;;;1.90;97.00;;;;;;5093279;28;20031;-75
2021/01/13 11:01:53;;;;;;;150.88;73.60;;;2.00;96.70;;;;;;5092895;28;20032;-76
2021/01/13 11:04:27;;;;;;;164.45;77.90;;;2.20;97.10;;;;;;5094369;28;20036;-76
2021/01/13 11:07:17;;;;;;;197.82;97.03;;;2.50;96.40;;;;;;5092987;28;20032;-75
2021/01/13 11:09:51;;;;;;;205.48;109.05;;;2.90;96.00;;;;;;5082738;28;20032;-76
2021/01/13 11:12:24;;;;;;;128.50;65.07;;;3.40;96.00;;;;;;5094320;28;20377;-77
2021/01/13 11:14:52;;;;;;;145.88;73.85;;;3.10;94.00;;;;;;5092644;28;20105;-76
2021/01/13 11:17:20;;;;;;;191.15;92.50;;;3.10;94.90;;;;;;5094063;28;20063;-76
2021/01/13 11:19:55;;;;;;;174.15;81.18;;;3.10;94.70;;;;;;5093039;28;20028;-75
2021/01/13 11:22:30;;;;;;;153.73;74.85;;;3.10;94.70;;;;;;5092635;28;20104;-74
2021/01/13 11:24:58;;;;;;;142.88;77.63;;;3.10;95.20;;;;;;5093410;28;20361;-74
2021/01/13 11:27:24;;;;;;;161.77;75.93;;;3.10;94.50;;;;;;5092674;28;20032;-74
2021/01/13 11:29:55;;;;;;;106.13;62.72;;;3.00;94.70;;;;;;5092342;28;20024;-74
2021/01/13 11:32:30;;;;;;;129.15;69.68;;;2.90;94.50;;;;;;5092636;28;20024;-75
2021/01/13 11:34:56;;;;;;;200.23;93.78;;;3.00;94.80;;;;;;5092395;28;20115;-75
2021/01/13 11:37:28;;;;;;;112.95;58.60;;;2.90;94.70;;;;;;5094054;28;20028;-76
2021/01/13 11:40:09;;;;;;;130.05;67.28;;;2.80;94.70;;;;;;5092627;28;20390;-74
2021/01/13 11:43:12;;;;;;;117.63;64.30;;;2.90;94.90;;;;;;5093262;28;20611;-74
2021/01/13 11:46:06;;;;;;;128.23;71.00;;;2.70;95.10;;;;;;5092727;28;20024;-73
2021/01/13 11:48:59;;;;;;;140.93;71.40;;;2.90;95.50;;;;;;5092510;28;20024;-74
2021/01/13 11:51:31;;;;;;;115.93;62.20;;;2.80;95.20;;;;;;5092372;28;20063;-76
2021/01/13 11:53:57;;;;;;;121.45;61.78;;;2.70;95.20;;;;;;5092968;28;20523;-75
2021/01/13 11:56:30;;;;;;;95.07;51.75;;;2.90;95.70;;;;;;5091983;28;20052;-76
2021/01/13 11:58:57;;;;;;;96.18;50.55;;;2.70;95.00;;;;;;5093057;28;20026;-75
2021/01/13 12:01:27;;;;;;;105.07;55.08;;;2.70;94.90;;;;;;5090903;28;20027;-74
2021/01/13 12:04:04;;;;;;;114.88;60.63;;;2.80;95.00;;;;;;5090624;28;20354;-74
2021/01/13 12:06:31;;;;;;;101.20;56.15;;;3.10;94.70;;;;;;5092488;28;20016;-75
2021/01/13 12:08:57;;;;;;;77.28;43.15;;;3.10;94.30;;;;;;5092272;28;20031;-74
2021/01/13 12:11:23;;;;;;;121.72;62.60;;;3.30;94.60;;;;;;5092997;28;20359;-75
2021/01/13 12:13:51;;;;;;;75.57;41.78;;;3.30;93.80;;;;;;5091764;28;20050;-76
2021/01/13 12:16:22;;;;;;;91.05;45.50;;;3.20;93.20;;;;;;5092162;28;20024;-74
2021/01/13 12:18:53;;;;;;;120.93;56.03;;;3.10;94.20;;;;;;5092876;28;20097;-76
2021/01/13 12:21:20;;;;;;;91.45;49.72;;;3.00;93.90;;;;;;5092251;28;20114;-75
2021/01/13 12:23:46;;;;;;;132.02;67.70;;;2.90;94.30;;;;;;5092098;28;20020;-75
2021/01/13 12:26:33;;;;;;;270.65;126.22;;;2.90;94.60;;;;;;5093109;28;20046;-73
2021/01/13 12:29:08;;;;;;;251.10;95.57;;;2.90;94.20;;;;;;5091649;28;20032;-73
2021/01/13 12:31:40;;;;;;;101.57;48.15;;;3.00;94.60;;;;;;5091800;28;20028;-73
2021/01/13 12:34:18;;;;;;;301.02;111.88;;;2.90;93.80;;;;;;5092079;28;20036;-74
2021/01/13 12:36:46;;;;;;;240.57;99.28;;;2.90;94.20;;;;;;5091977;28;20028;-75
2021/01/13 12:39:26;;;;;;;229.40;97.13;;;2.80;94.20;;;;;;5091797;28;20025;-74
2021/01/13 12:41:53;;;;;;;274.30;118.60;;;2.90;94.60;;;;;;5091889;28;20024;-75
2021/01/13 12:44:21;;;;;;;175.57;83.40;;;3.00;94.80;;;;;;5091905;28;20031;-75
2021/01/13 12:46:58;;;;;;;138.63;66.68;;;2.90;94.50;;;;;;5091459;28;20073;-75
2021/01/13 12:49:25;;;;;;;110.47;55.90;;;3.30;95.20;;;;;;5091879;28;20020;-75
2021/01/13 12:51:58;;;;;;;65.22;36.90;;;3.90;92.90;;;;;;5091780;28;20035;-74
2021/01/13 12:54:25;;;;;;;62.28;34.55;;;4.00;92.20;;;;;;5091807;28;20028;-74
2021/01/13 12:56:51;;;;;;;72.45;40.45;;;4.30;91.40;;;;;;5093862;28;20040;-75